TFM - Tactical Decision Aid (Experimental) INFO Settings
ID: Runway Winds: CIG/VIS Threshold: METAR Board:

KJAN - Jackson-Medgar Wiley Evers Intl

Updated at: 0804 UTC 23 Jul 2018
Latest TAF at: 0520 UTC 23 Jul 2018

TAF Board

Time0754Z23/09Z23/10Z23/11Z23/12Z23/13Z23/14Z23/15Z23/16Z23/17Z23/18Z23/19Z23/20Z23/21Z
TypeOBSPRVLPRVLPRVLPRVLPRVLPRVLPRVLPRVLPRVLPRVLPRVLPRVLPRVL
VIS10>6>6>6>6>6>6>6>6>6>6>6>6>6
CIG----------------------------
CoverCLRSCTSCTSCTSCTSCTSCTSCTSCTSCTSCTSCTSCTSCT
FltCatVFRVFRVFRVFRVFRVFRVFRVFRVFRVFRVFRVFRVFRVFR
WX----------------------------
WDir140330330330330330330330330330330330330330
WSpd37777777777777
WGst----------------------------
TAF
KJAN 230520Z 2306/2406 33007KT P6SM SCT250

METAR Board

Time 22/21Z 22/22Z 22/23Z 23/00Z 23/01Z 23/02Z 23/03Z 23/04Z 23/05Z 23/06Z 23/07Z 23/08Z
Temp92 90 89 86 82 78 76 76 74 75 75 75
Dewpt70 70 70 69 71 71 72 71 71 72 72 72
Altim29.82 29.82 29.82 29.83 29.83 29.84 29.84 29.85 29.84 29.84 29.84 29.83
VIS10 10 10 10 10 10 10 10 10 10 10 10
CIG250 250 250 -- -- -- -- -- -- -- -- --
CoverBKNBKNBKNSCTFEWFEWSCTSCTCLRCLRCLRCLR
FltCatVFRVFRVFRVFRVFRVFRVFRVFRVFRVFRVFRVFR
WX------------------------
WDir320300310330200040000140
WSpd7 9 7 8 4 0 0 3 0 0 0 3
WGst-- -- 16 -- -- -- -- -- -- -- -- --
METAR
KJAN 222054Z 32007KT 10SM FEW050 BKN250 33/21 A2982 RMK AO2 SLP091 T03330211 56016
KJAN 222154Z 30009KT 10SM BKN250 32/21 A2982 RMK AO2 SLP093 T03220211
KJAN 222254Z 31007G16KT 10SM BKN250 32/21 A2982 RMK AO2 SLP093 T03170211
KJAN 222354Z 33008KT 10SM SCT250 30/21 A2983 RMK AO2 SLP096 T03000206 10339 20300 53004
KJAN 230054Z 02004KT 10SM FEW250 28/22 A2983 RMK AO2 SLP097 T02780217
KJAN 230154Z 00000KT 10SM FEW250 26/22 A2984 RMK AO2 SLP098 T02560217
KJAN 230254Z 00000KT 10SM SCT250 24/22 A2984 RMK AO2 SLP100 T02440222 53004
KJAN 230354Z 04003KT 10SM SCT250 24/22 A2985 RMK AO2 SLP102 T02440217
KJAN 230454Z AUTO 00000KT 10SM CLR 23/22 A2984 RMK AO2 SLP101 T02330217
KJAN 230554Z AUTO 00000KT 10SM CLR 24/22 A2984 RMK AO2 SLP099 T02390222 10300 20233 403390233 58001
KJAN 230654Z AUTO 00000KT 10SM CLR 24/22 A2984 RMK AO2 SLP099 T02390222
KJAN 230754Z AUTO 14003KT 10SM CLR 24/22 A2983 RMK AO2 SLP096 T02390222

TAF/METAR Board Legend

Potential Impact
  None Marginal Slight Moderate High
Visibility (sm) >5 3≤X≤5 2≤X<3 0.5≤X<2 <0.5
Ceiling (100 ft) >30 10≤X≤30 6≤X<10 2≤X<6 <2
Wind Speed (kt) <10 10≤X<20 20≤X<30 ≥30
Wind Gust (kt) <15 15≤X<25 25≤X<35 ≥35
Weather No Wx Reported VCTS -TS,-FZRA TS,FZRA +TS,+FZRA




Page loaded:  08:04 UTC  |   01:04 AM Pacific  |   02:04 AM Mountain  |   03:04 AM Central  |   04:04 AM Eastern

 

ADVISORIES

FORECASTS

FORECASTS

OBSERVATIONS

USER TOOLS

ABOUT US